sensor_id;sensor_type;location;lat;lon;timestamp;pressure;altitude;pressure_sealevel;temperature;humidity
21504;BME280;10913;51.992;9.228;2023-02-19T00:02:24;100227.66;;;9.91;100.00
21504;BME280;10913;51.992;9.228;2023-02-19T00:04:49;100222.38;;;9.90;100.00
21504;BME280;10913;51.992;9.228;2023-02-19T00:07:14;100220.63;;;9.87;100.00
21504;BME280;10913;51.992;9.228;2023-02-19T00:09:40;100217.09;;;9.90;100.00
21504;BME280;10913;51.992;9.228;2023-02-19T00:12:05;100215.34;;;9.90;100.00
21504;BME280;10913;51.992;9.228;2023-02-19T00:14:30;100205.66;;;9.91;100.00
21504;BME280;10913;51.992;9.228;2023-02-19T00:16:56;100196.88;;;9.89;100.00
21504;BME280;10913;51.992;9.228;2023-02-19T00:19:21;100202.13;;;9.90;100.00
21504;BME280;10913;51.992;9.228;2023-02-19T00:21:50;100196.88;;;9.90;100.00
21504;BME280;10913;51.992;9.228;2023-02-19T00:24:16;100200.38;;;9.91;100.00
21504;BME280;10913;51.992;9.228;2023-02-19T00:26:42;100192.47;;;9.91;100.00
21504;BME280;10913;51.992;9.228;2023-02-19T00:29:11;100184.53;;;9.91;100.00
21504;BME280;10913;51.992;9.228;2023-02-19T00:31:37;100185.44;;;9.90;100.00
21504;BME280;10913;51.992;9.228;2023-02-19T00:34:04;100181.03;;;9.89;100.00
21504;BME280;10913;51.992;9.228;2023-02-19T00:36:30;100174.00;;;9.86;100.00
21504;BME280;10913;51.992;9.228;2023-02-19T00:38:56;100175.75;;;9.87;100.00
21504;BME280;10913;51.992;9.228;2023-02-19T00:41:22;100178.41;;;9.84;100.00
21504;BME280;10913;51.992;9.228;2023-02-19T00:46:22;100174.03;;;9.80;100.00
21504;BME280;10913;51.992;9.228;2023-02-19T00:48:48;100170.53;;;9.80;100.00
21504;BME280;10913;51.992;9.228;2023-02-19T00:51:13;100167.88;;;9.81;100.00
21504;BME280;10913;51.992;9.228;2023-02-19T00:53:39;100162.59;;;9.83;100.00
21504;BME280;10913;51.992;9.228;2023-02-19T00:56:05;100152.03;;;9.81;100.00
21504;BME280;10913;51.992;9.228;2023-02-19T00:58:31;100157.31;;;9.83;100.00
21504;BME280;10913;51.992;9.228;2023-02-19T01:00:57;100148.53;;;9.82;100.00
21504;BME280;10913;51.992;9.228;2023-02-19T01:03:22;100150.28;;;9.83;100.00
21504;BME280;10913;51.992;9.228;2023-02-19T01:05:49;100144.13;;;9.84;100.00
21504;BME280;10913;51.992;9.228;2023-02-19T01:08:15;100145.00;;;9.82;100.00
21504;BME280;10913;51.992;9.228;2023-02-19T01:10:40;100136.22;;;9.83;100.00
21504;BME280;10913;51.992;9.228;2023-02-19T01:13:06;100148.50;;;9.85;100.00
21504;BME280;10913;51.992;9.228;2023-02-19T01:15:32;100147.63;;;9.85;100.00
21504;BME280;10913;51.992;9.228;2023-02-19T01:17:58;100141.47;;;9.83;100.00
21504;BME280;10913;51.992;9.228;2023-02-19T01:20:23;100137.09;;;9.82;100.00
21504;BME280;10913;51.992;9.228;2023-02-19T01:22:48;100135.34;;;9.79;100.00
21504;BME280;10913;51.992;9.228;2023-02-19T01:25:14;100134.50;;;9.77;100.00
21504;BME280;10913;51.992;9.228;2023-02-19T01:27:39;100134.50;;;9.77;100.00
21504;BME280;10913;51.992;9.228;2023-02-19T01:30:05;100137.97;;;9.79;100.00
21504;BME280;10913;51.992;9.228;2023-02-19T01:32:30;100137.09;;;9.82;100.00
21504;BME280;10913;51.992;9.228;2023-02-19T01:34:56;100131.81;;;9.82;100.00
21504;BME280;10913;51.992;9.228;2023-02-19T01:37:21;100143.25;;;9.82;100.00
21504;BME280;10913;51.992;9.228;2023-02-19T01:39:46;100135.34;;;9.82;100.00
21504;BME280;10913;51.992;9.228;2023-02-19T01:42:15;100121.25;;;9.82;100.00
21504;BME280;10913;51.992;9.228;2023-02-19T01:47:09;100128.31;;;9.81;100.00
21504;BME280;10913;51.992;9.228;2023-02-19T01:49:42;100127.41;;;9.82;100.00
21504;BME280;10913;51.992;9.228;2023-02-19T01:52:33;100127.41;;;9.82;100.00
21504;BME280;10913;51.992;9.228;2023-02-19T01:55:01;100122.13;;;9.82;100.00
21504;BME280;10913;51.992;9.228;2023-02-19T01:57:34;100125.66;;;9.81;100.00
21504;BME280;10913;51.992;9.228;2023-02-19T02:00:13;100123.00;;;9.83;100.00
21504;BME280;10913;51.992;9.228;2023-02-19T02:02:40;100120.38;;;9.83;100.00
21504;BME280;10913;51.992;9.228;2023-02-19T02:05:10;100124.75;;;9.85;100.00
21504;BME280;10913;51.992;9.228;2023-02-19T02:07:40;100128.28;;;9.84;100.00
21504;BME280;10913;51.992;9.228;2023-02-19T02:10:24;100130.03;;;9.85;100.00
21504;BME280;10913;51.992;9.228;2023-02-19T02:12:51;100126.53;;;9.85;100.00
21504;BME280;10913;51.992;9.228;2023-02-19T02:15:17;100123.88;;;9.86;100.00
21504;BME280;10913;51.992;9.228;2023-02-19T02:17:53;100122.13;;;9.85;100.00
21504;BME280;10913;51.992;9.228;2023-02-19T02:20:43;100120.34;;;9.87;100.00
21504;BME280;10913;51.992;9.228;2023-02-19T02:23:31;100117.72;;;9.89;100.00
21504;BME280;10913;51.992;9.228;2023-02-19T02:31:50;100105.38;;;9.92;100.00
21504;BME280;10913;51.992;9.228;2023-02-19T02:34:23;100109.78;;;9.90;100.00
21504;BME280;10913;51.992;9.228;2023-02-19T02:36:52;100113.28;;;9.92;100.00
21504;BME280;10913;51.992;9.228;2023-02-19T02:39:21;100112.41;;;9.93;100.00
21504;BME280;10913;51.992;9.228;2023-02-19T02:42:05;100110.66;;;9.91;100.00
21504;BME280;10913;51.992;9.228;2023-02-19T02:44:49;100118.56;;;9.92;100.00
21504;BME280;10913;51.992;9.228;2023-02-19T02:47:38;100108.88;;;9.93;100.00
21504;BME280;10913;51.992;9.228;2023-02-19T02:50:10;100115.03;;;9.93;100.00
21504;BME280;10913;51.992;9.228;2023-02-19T02:52:38;100103.59;;;9.94;100.00
21504;BME280;10913;51.992;9.228;2023-02-19T02:55:24;100116.81;;;9.94;100.00
21504;BME280;10913;51.992;9.228;2023-02-19T02:57:50;100109.75;;;9.96;100.00
21504;BME280;10913;51.992;9.228;2023-02-19T03:00:15;100109.75;;;9.95;100.00
21504;BME280;10913;51.992;9.228;2023-02-19T03:02:41;100110.63;;;9.97;100.00
21504;BME280;10913;51.992;9.228;2023-02-19T03:05:21;100112.38;;;9.96;100.00
21504;BME280;10913;51.992;9.228;2023-02-19T03:08:13;100107.13;;;9.96;100.00
21504;BME280;10913;51.992;9.228;2023-02-19T03:10:52;100111.50;;;9.97;100.00
21504;BME280;10913;51.992;9.228;2023-02-19T03:13:31;100116.81;;;9.94;100.00
21504;BME280;10913;51.992;9.228;2023-02-19T03:16:19;100111.50;;;9.97;100.00
21504;BME280;10913;51.992;9.228;2023-02-19T03:19:07;100122.94;;;9.98;100.00
21504;BME280;10913;51.992;9.228;2023-02-19T03:22:06;100122.06;;;9.97;100.00
21504;BME280;10913;51.992;9.228;2023-02-19T03:24:37;100123.81;;;9.98;100.00
21504;BME280;10913;51.992;9.228;2023-02-19T03:27:25;100123.81;;;9.98;100.00
21504;BME280;10913;51.992;9.228;2023-02-19T03:29:53;100111.50;;;9.97;100.00
21504;BME280;10913;51.992;9.228;2023-02-19T03:32:26;100108.88;;;9.97;100.00
21504;BME280;10913;51.992;9.228;2023-02-19T03:34:56;100114.16;;;9.97;100.00
21504;BME280;10913;51.992;9.228;2023-02-19T03:37:28;100129.97;;;9.97;100.00
21504;BME280;10913;51.992;9.228;2023-02-19T03:39:56;100126.47;;;9.97;100.00
21504;BME280;10913;51.992;9.228;2023-02-19T03:42:59;100121.19;;;9.97;100.00
21504;BME280;10913;51.992;9.228;2023-02-19T03:45:41;100127.34;;;9.94;100.00
21504;BME280;10913;51.992;9.228;2023-02-19T03:48:29;100121.22;;;9.92;100.00
21504;BME280;10913;51.992;9.228;2023-02-19T03:56:33;100126.50;;;9.91;100.00
21504;BME280;10913;51.992;9.228;2023-02-19T04:01:54;100135.28;;;9.91;100.00
21504;BME280;10913;51.992;9.228;2023-02-19T04:04:34;100137.94;;;9.91;100.00
21504;BME280;10913;51.992;9.228;2023-02-19T04:07:00;100143.19;;;9.91;100.00
21504;BME280;10913;51.992;9.228;2023-02-19T04:09:35;100137.03;;;9.92;100.00
21504;BME280;10913;51.992;9.228;2023-02-19T04:12:02;100139.69;;;9.92;100.00
21504;BME280;10913;51.992;9.228;2023-02-19T04:14:32;100137.03;;;9.92;100.00
21504;BME280;10913;51.992;9.228;2023-02-19T04:17:06;100144.94;;;9.94;100.00
21504;BME280;10913;51.992;9.228;2023-02-19T04:19:35;100144.97;;;9.92;100.00
21504;BME280;10913;51.992;9.228;2023-02-19T04:22:04;100137.91;;;9.94;100.00
21504;BME280;10913;51.992;9.228;2023-02-19T04:24:42;100149.34;;;9.93;100.00
21504;BME280;10913;51.992;9.228;2023-02-19T04:27:10;100144.06;;;9.93;100.00
21504;BME280;10913;51.992;9.228;2023-02-19T04:29:36;100152.00;;;9.93;100.00
21504;BME280;10913;51.992;9.228;2023-02-19T04:32:02;100163.41;;;9.95;100.00
21504;BME280;10913;51.992;9.228;2023-02-19T04:34:27;100156.38;;;9.94;100.00
21504;BME280;10913;51.992;9.228;2023-02-19T04:36:52;100167.84;;;9.92;100.00
21504;BME280;10913;51.992;9.228;2023-02-19T04:39:18;100165.19;;;9.92;100.00
21504;BME280;10913;51.992;9.228;2023-02-19T04:41:43;100168.72;;;9.91;100.00
21504;BME280;10913;51.992;9.228;2023-02-19T04:44:09;100176.63;;;9.91;100.00
21504;BME280;10913;51.992;9.228;2023-02-19T04:46:34;100186.31;;;9.90;100.00
21504;BME280;10913;51.992;9.228;2023-02-19T04:48:59;100182.78;;;9.90;100.00
21504;BME280;10913;51.992;9.228;2023-02-19T04:51:25;100188.94;;;9.90;100.00
21504;BME280;10913;51.992;9.228;2023-02-19T04:53:50;100191.59;;;9.92;100.00
21504;BME280;10913;51.992;9.228;2023-02-19T04:56:16;100187.19;;;9.92;100.00
21504;BME280;10913;51.992;9.228;2023-02-19T04:58:43;100199.50;;;9.90;100.00
21504;BME280;10913;51.992;9.228;2023-02-19T05:01:09;100206.53;;;9.91;100.00
21504;BME280;10913;51.992;9.228;2023-02-19T05:03:35;100188.06;;;9.90;100.00
21504;BME280;10913;51.992;9.228;2023-02-19T05:06:05;100205.66;;;9.91;100.00
21504;BME280;10913;51.992;9.228;2023-02-19T05:08:31;100205.66;;;9.91;100.00
21504;BME280;10913;51.992;9.228;2023-02-19T05:10:58;100204.78;;;9.90;100.00
21504;BME280;10913;51.992;9.228;2023-02-19T05:13:24;100205.66;;;9.89;100.00
21504;BME280;10913;51.992;9.228;2023-02-19T05:16:04;100216.22;;;9.86;100.00
21504;BME280;10913;51.992;9.228;2023-02-19T05:18:31;100217.97;;;9.87;100.00
21504;BME280;10913;51.992;9.228;2023-02-19T05:20:58;100218.88;;;9.86;100.00
21504;BME280;10913;51.992;9.228;2023-02-19T05:23:24;100212.72;;;9.86;100.00
21504;BME280;10913;51.992;9.228;2023-02-19T05:25:50;100217.09;;;9.85;100.00
21504;BME280;10913;51.992;9.228;2023-02-19T05:28:15;100221.50;;;9.83;100.00
21504;BME280;10913;51.992;9.228;2023-02-19T05:30:49;100224.16;;;9.83;100.00
21504;BME280;10913;51.992;9.228;2023-02-19T05:33:16;100230.31;;;9.82;100.00
21504;BME280;10913;51.992;9.228;2023-02-19T05:35:47;100218.00;;;9.81;100.00
21504;BME280;10913;51.992;9.228;2023-02-19T05:38:13;100218.88;;;9.80;100.00
21504;BME280;10913;51.992;9.228;2023-02-19T05:40:39;100225.03;;;9.81;100.00
21504;BME280;10913;51.992;9.228;2023-02-19T05:43:05;100224.16;;;9.80;100.00
21504;BME280;10913;51.992;9.228;2023-02-19T05:45:34;100242.63;;;9.80;100.00
21504;BME280;10913;51.992;9.228;2023-02-19T05:48:01;100240.03;;;9.77;100.00
21504;BME280;10913;51.992;9.228;2023-02-19T05:50:26;100240.91;;;9.76;100.00
21504;BME280;10913;51.992;9.228;2023-02-19T05:52:55;100251.47;;;9.78;100.00
21504;BME280;10913;51.992;9.228;2023-02-19T05:55:20;100247.06;;;9.75;100.00
21504;BME280;10913;51.992;9.228;2023-02-19T05:57:47;100247.06;;;9.75;100.00
21504;BME280;10913;51.992;9.228;2023-02-19T06:00:17;100252.34;;;9.75;100.00
21504;BME280;10913;51.992;9.228;2023-02-19T06:02:43;100258.50;;;9.74;100.00
21504;BME280;10913;51.992;9.228;2023-02-19T06:05:09;100265.56;;;9.72;100.00
21504;BME280;10913;51.992;9.228;2023-02-19T06:07:35;100291.03;;;9.76;100.00
21504;BME280;10913;51.992;9.228;2023-02-19T06:10:06;100313.91;;;9.74;100.00
21504;BME280;10913;51.992;9.228;2023-02-19T06:12:35;100313.91;;;9.68;100.00
21504;BME280;10913;51.992;9.228;2023-02-19T06:15:01;100329.78;;;9.59;100.00
21504;BME280;10913;51.992;9.228;2023-02-19T06:17:28;100340.34;;;9.50;100.00
21504;BME280;10913;51.992;9.228;2023-02-19T06:19:53;100349.16;;;9.35;100.00
21504;BME280;10913;51.992;9.228;2023-02-19T06:22:19;100354.41;;;9.27;100.00
21504;BME280;10913;51.992;9.228;2023-02-19T06:24:47;100365.84;;;9.13;100.00
21504;BME280;10913;51.992;9.228;2023-02-19T06:27:12;100373.75;;;9.02;100.00
21504;BME280;10913;51.992;9.228;2023-02-19T06:29:38;100381.66;;;8.93;100.00
21504;BME280;10913;51.992;9.228;2023-02-19T06:32:09;100396.56;;;8.85;100.00
21504;BME280;10913;51.992;9.228;2023-02-19T06:34:35;100397.44;;;8.75;100.00
21504;BME280;10913;51.992;9.228;2023-02-19T06:37:01;100403.56;;;8.74;100.00
21504;BME280;10913;51.992;9.228;2023-02-19T06:39:27;100410.56;;;8.66;100.00
21504;BME280;10913;51.992;9.228;2023-02-19T06:41:56;100414.94;;;8.59;100.00
21504;BME280;10913;51.992;9.228;2023-02-19T06:44:22;100413.16;;;8.52;100.00
21504;BME280;10913;51.992;9.228;2023-02-19T06:46:47;100421.91;;;8.46;100.00
21504;BME280;10913;51.992;9.228;2023-02-19T06:49:13;100435.06;;;8.46;100.00
21504;BME280;10913;51.992;9.228;2023-02-19T06:51:39;100436.81;;;8.37;100.00
21504;BME280;10913;51.992;9.228;2023-02-19T06:54:05;100453.47;;;8.34;100.00
21504;BME280;10913;51.992;9.228;2023-02-19T06:56:33;100471.81;;;8.28;100.00
21504;BME280;10913;51.992;9.228;2023-02-19T06:59:01;100470.03;;;8.24;100.00
21504;BME280;10913;51.992;9.228;2023-02-19T07:01:28;100477.06;;;8.25;100.00
21504;BME280;10913;51.992;9.228;2023-02-19T07:03:54;100491.94;;;8.20;100.00
21504;BME280;10913;51.992;9.228;2023-02-19T07:06:21;100498.91;;;8.12;100.00
21504;BME280;10913;51.992;9.228;2023-02-19T07:08:47;100497.97;;;8.04;100.00
21504;BME280;10913;51.992;9.228;2023-02-19T07:11:13;100511.13;;;8.02;100.00
21504;BME280;10913;51.992;9.228;2023-02-19T07:13:39;100517.22;;;8.00;100.00
21504;BME280;10913;51.992;9.228;2023-02-19T07:16:06;100516.38;;;7.99;100.00
21504;BME280;10913;51.992;9.228;2023-02-19T07:18:33;100526.03;;;7.99;100.00
21504;BME280;10913;51.992;9.228;2023-02-19T07:21:06;100538.25;;;7.93;100.00
21504;BME280;10913;51.992;9.228;2023-02-19T07:23:32;100536.50;;;7.92;100.00
21504;BME280;10913;51.992;9.228;2023-02-19T07:25:58;100546.16;;;7.93;100.00
21504;BME280;10913;51.992;9.228;2023-02-19T07:28:23;100555.81;;;7.96;100.00
21504;BME280;10913;51.992;9.228;2023-02-19T07:30:49;100555.81;;;7.94;100.00
21504;BME280;10913;51.992;9.228;2023-02-19T07:33:15;100559.28;;;7.93;100.00
21504;BME280;10913;51.992;9.228;2023-02-19T07:35:48;100575.94;;;7.92;100.00
21504;BME280;10913;51.992;9.228;2023-02-19T07:38:20;100575.91;;;7.89;100.00
21504;BME280;10913;51.992;9.228;2023-02-19T07:41:04;100589.91;;;7.85;100.00
21504;BME280;10913;51.992;9.228;2023-02-19T07:43:32;100589.88;;;7.84;100.00
21504;BME280;10913;51.992;9.228;2023-02-19T07:46:02;100600.38;;;7.82;100.00
21504;BME280;10913;51.992;9.228;2023-02-19T07:48:27;100616.22;;;7.85;100.00
21504;BME280;10913;51.992;9.228;2023-02-19T07:50:54;100618.03;;;7.91;100.00
21504;BME280;10913;51.992;9.228;2023-02-19T07:53:21;100618.88;;;7.88;100.00
21504;BME280;10913;51.992;9.228;2023-02-19T07:55:46;100631.13;;;7.86;100.00
21504;BME280;10913;51.992;9.228;2023-02-19T07:58:12;100632.00;;;7.85;100.00
21504;BME280;10913;51.992;9.228;2023-02-19T08:00:38;100636.38;;;7.86;100.00
21504;BME280;10913;51.992;9.228;2023-02-19T08:03:03;100636.44;;;7.92;100.00
21504;BME280;10913;51.992;9.228;2023-02-19T08:05:35;100638.19;;;7.90;100.00
21504;BME280;10913;51.992;9.228;2023-02-19T08:08:02;100648.72;;;7.92;100.00
21504;BME280;10913;51.992;9.228;2023-02-19T08:10:29;100646.06;;;7.90;100.00
21504;BME280;10913;51.992;9.228;2023-02-19T08:13:15;100660.13;;;7.94;100.00
21504;BME280;10913;51.992;9.228;2023-02-19T08:15:44;100664.53;;;7.93;100.00
21504;BME280;10913;51.992;9.228;2023-02-19T08:18:11;100666.22;;;7.90;100.00
21504;BME280;10913;51.992;9.228;2023-02-19T08:20:37;100668.81;;;7.87;100.00
21504;BME280;10913;51.992;9.228;2023-02-19T08:23:02;100677.59;;;7.86;100.00
21504;BME280;10913;51.992;9.228;2023-02-19T08:25:28;100687.22;;;7.85;100.00
21504;BME280;10913;51.992;9.228;2023-02-19T08:27:53;100681.09;;;7.86;100.00
21504;BME280;10913;51.992;9.228;2023-02-19T08:30:19;100689.88;;;7.87;100.00
21504;BME280;10913;51.992;9.228;2023-02-19T08:32:45;100696.91;;;7.88;100.00
21504;BME280;10913;51.992;9.228;2023-02-19T08:35:10;100684.59;;;7.85;100.00
21504;BME280;10913;51.992;9.228;2023-02-19T08:37:35;100694.25;;;7.86;100.00
21504;BME280;10913;51.992;9.228;2023-02-19T08:40:01;100692.44;;;7.82;100.00
21504;BME280;10913;51.992;9.228;2023-02-19T08:42:29;100700.31;;;7.78;100.00
21504;BME280;10913;51.992;9.228;2023-02-19T08:44:55;100710.75;;;7.72;100.00
21504;BME280;10913;51.992;9.228;2023-02-19T08:47:20;100706.25;;;7.63;100.00
21504;BME280;10913;51.992;9.228;2023-02-19T08:49:45;100725.47;;;7.56;100.00
21504;BME280;10913;51.992;9.228;2023-02-19T08:52:11;100734.97;;;7.46;100.00
21504;BME280;10913;51.992;9.228;2023-02-19T08:54:36;100740.22;;;7.45;100.00
21504;BME280;10913;51.992;9.228;2023-02-19T08:57:01;100737.59;;;7.45;100.00
21504;BME280;10913;51.992;9.228;2023-02-19T08:59:32;100752.53;;;7.49;100.00
21504;BME280;10913;51.992;9.228;2023-02-19T09:01:58;100759.59;;;7.51;100.00
21504;BME280;10913;51.992;9.228;2023-02-19T09:04:23;100760.50;;;7.55;100.00
21504;BME280;10913;51.992;9.228;2023-02-19T09:06:49;100771.06;;;7.56;100.00
21504;BME280;10913;51.992;9.228;2023-02-19T09:09:14;100771.09;;;7.61;100.00
21504;BME280;10913;51.992;9.228;2023-02-19T09:11:40;100763.16;;;7.55;100.00
21504;BME280;10913;51.992;9.228;2023-02-19T09:14:06;100765.81;;;7.58;100.00
21504;BME280;10913;51.992;9.228;2023-02-19T09:16:35;100773.81;;;7.67;100.00
21504;BME280;10913;51.992;9.228;2023-02-19T09:19:01;100769.50;;;7.72;100.00
21504;BME280;10913;51.992;9.228;2023-02-19T09:21:27;100776.59;;;7.79;100.00
21504;BME280;10913;51.992;9.228;2023-02-19T09:23:52;100781.13;;;7.91;100.00
21504;BME280;10913;51.992;9.228;2023-02-19T09:26:18;100774.19;;;7.98;100.00
21504;BME280;10913;51.992;9.228;2023-02-19T09:28:43;100786.44;;;7.95;100.00
21504;BME280;10913;51.992;9.228;2023-02-19T09:31:11;100784.72;;;7.99;100.00
21504;BME280;10913;51.992;9.228;2023-02-19T09:33:40;100790.84;;;8.00;100.00
21504;BME280;10913;51.992;9.228;2023-02-19T09:36:06;100792.59;;;7.98;100.00
21504;BME280;10913;51.992;9.228;2023-02-19T09:38:32;100799.63;;;7.97;100.00
21504;BME280;10913;51.992;9.228;2023-02-19T09:40:58;100807.50;;;7.97;100.00
21504;BME280;10913;51.992;9.228;2023-02-19T09:43:26;100816.31;;;7.99;100.00
21504;BME280;10913;51.992;9.228;2023-02-19T09:46:02;100828.56;;;7.99;100.00
21504;BME280;10913;51.992;9.228;2023-02-19T09:48:28;100822.41;;;8.00;100.00
21504;BME280;10913;51.992;9.228;2023-02-19T09:50:54;100818.91;;;8.01;100.00
21504;BME280;10913;51.992;9.228;2023-02-19T09:53:24;100830.41;;;8.07;100.00
21504;BME280;10913;51.992;9.228;2023-02-19T09:55:51;100834.13;;;8.24;100.00
21504;BME280;10913;51.992;9.228;2023-02-19T09:58:21;100842.38;;;8.53;100.00
21504;BME280;10913;51.992;9.228;2023-02-19T10:00:52;100834.00;;;8.97;100.00
21504;BME280;10913;51.992;9.228;2023-02-19T10:03:26;100835.31;;;9.55;99.75
21504;BME280;10913;51.992;9.228;2023-02-19T10:06:03;100847.91;;;10.14;97.23
21504;BME280;10913;51.992;9.228;2023-02-19T10:08:32;100852.41;;;10.41;95.09
21504;BME280;10913;51.992;9.228;2023-02-19T10:10:59;100851.59;;;10.68;92.69
21504;BME280;10913;51.992;9.228;2023-02-19T10:15:56;100863.09;;;11.03;91.06
21504;BME280;10913;51.992;9.228;2023-02-19T10:18:27;100863.97;;;11.22;90.43
21504;BME280;10913;51.992;9.228;2023-02-19T10:20:54;100881.63;;;11.31;89.42
21504;BME280;10913;51.992;9.228;2023-02-19T10:23:21;100891.31;;;11.32;88.73
21504;BME280;10913;51.992;9.228;2023-02-19T10:25:49;100891.31;;;11.27;88.93
21504;BME280;10913;51.992;9.228;2023-02-19T10:28:19;100895.72;;;11.24;89.29
21504;BME280;10913;51.992;9.228;2023-02-19T10:30:54;100901.88;;;11.03;89.18
21504;BME280;10913;51.992;9.228;2023-02-19T10:33:20;100917.72;;;10.85;88.49
21504;BME280;10913;51.992;9.228;2023-02-19T10:35:55;100914.16;;;10.67;89.39
21504;BME280;10913;51.992;9.228;2023-02-19T10:38:26;100929.03;;;10.44;89.71
21504;BME280;10913;51.992;9.228;2023-02-19T10:41:17;100920.97;;;10.17;90.09
21504;BME280;10913;51.992;9.228;2023-02-19T10:46:30;100938.56;;;10.16;91.07
21504;BME280;10913;51.992;9.228;2023-02-19T10:49:32;100937.72;;;10.20;91.37
21504;BME280;10913;51.992;9.228;2023-02-19T10:51:53;100934.28;;;10.30;90.65
21504;BME280;10913;51.992;9.228;2023-02-19T10:54:24;100932.56;;;10.48;90.50
21504;BME280;10913;51.992;9.228;2023-02-19T10:56:53;100935.31;;;10.81;89.49
21504;BME280;10913;51.992;9.228;2023-02-19T10:59:27;100936.28;;;11.32;88.06
21504;BME280;10913;51.992;9.228;2023-02-19T11:04:24;100920.38;;;11.61;84.07
21504;BME280;10913;51.992;9.228;2023-02-19T11:06:50;100920.38;;;11.70;83.43
21504;BME280;10913;51.992;9.228;2023-02-19T11:09:34;100925.69;;;11.67;82.78
21504;BME280;10913;51.992;9.228;2023-02-19T11:12:02;100921.28;;;11.66;83.39
21504;BME280;10913;51.992;9.228;2023-02-19T11:14:31;100924.81;;;11.68;83.86
21504;BME280;10913;51.992;9.228;2023-02-19T11:16:59;100920.41;;;11.73;83.51
21504;BME280;10913;51.992;9.228;2023-02-19T11:19:37;100930.97;;;11.81;82.50
21504;BME280;10913;51.992;9.228;2023-02-19T11:24:49;100944.22;;;11.85;82.84
21504;BME280;10913;51.992;9.228;2023-02-19T11:27:25;100953.94;;;11.83;82.13
21504;BME280;10913;51.992;9.228;2023-02-19T11:29:50;100955.69;;;11.81;81.71
21504;BME280;10913;51.992;9.228;2023-02-19T11:34:44;100970.72;;;11.76;81.25
21504;BME280;10913;51.992;9.228;2023-02-19T11:37:11;100967.19;;;11.77;80.41
21504;BME280;10913;51.992;9.228;2023-02-19T11:39:38;100958.34;;;11.84;81.46
21504;BME280;10913;51.992;9.228;2023-02-19T11:58:25;100946.81;;;12.10;79.41
21504;BME280;10913;51.992;9.228;2023-02-19T12:15:07;100943.34;;;11.88;81.31
21504;BME280;10913;51.992;9.228;2023-02-19T12:20:27;100942.44;;;11.81;81.17
21504;BME280;10913;51.992;9.228;2023-02-19T12:31:38;100944.22;;;11.67;81.04
21504;BME280;10913;51.992;9.228;2023-02-19T12:34:38;100945.13;;;11.58;80.35
21504;BME280;10913;51.992;9.228;2023-02-19T12:40:10;100944.22;;;11.46;81.46
21504;BME280;10913;51.992;9.228;2023-02-19T12:45:20;100962.72;;;11.17;82.46
21504;BME280;10913;51.992;9.228;2023-02-19T12:47:59;100955.66;;;11.10;83.22
21504;BME280;10913;51.992;9.228;2023-02-19T12:50:27;100958.31;;;11.20;82.73
21504;BME280;10913;51.992;9.228;2023-02-19T12:53:08;100954.81;;;11.30;83.13
21504;BME280;10913;51.992;9.228;2023-02-19T12:55:40;100964.50;;;11.28;81.46
21504;BME280;10913;51.992;9.228;2023-02-19T12:58:12;100973.31;;;11.24;80.51
21504;BME280;10913;51.992;9.228;2023-02-19T13:00:49;100968.00;;;11.08;81.51
21504;BME280;10913;51.992;9.228;2023-02-19T13:03:29;100979.44;;;10.99;81.41
21504;BME280;10913;51.992;9.228;2023-02-19T13:06:05;100977.66;;;10.93;81.69
21504;BME280;10913;51.992;9.228;2023-02-19T13:08:41;100987.34;;;10.90;82.18
21504;BME280;10913;51.992;9.228;2023-02-19T13:11:23;101004.06;;;10.84;82.47
21504;BME280;10913;51.992;9.228;2023-02-19T13:13:55;101006.69;;;10.78;83.18
21504;BME280;10913;51.992;9.228;2023-02-19T13:16:24;101011.09;;;10.76;83.88
21504;BME280;10913;51.992;9.228;2023-02-19T13:18:57;101019.94;;;10.92;82.24
21504;BME280;10913;51.992;9.228;2023-02-19T13:21:25;101026.13;;;10.95;81.12
21504;BME280;10913;51.992;9.228;2023-02-19T13:24:16;101030.56;;;10.98;81.75
21504;BME280;10913;51.992;9.228;2023-02-19T13:32:16;101031.31;;;10.68;82.23
21504;BME280;10913;51.992;9.228;2023-02-19T13:35:15;101018.94;;;10.61;82.58
21504;BME280;10913;51.992;9.228;2023-02-19T13:37:43;101017.16;;;10.57;82.54
21504;BME280;10913;51.992;9.228;2023-02-19T13:42:58;101027.72;;;10.54;83.70
21504;BME280;10913;51.992;9.228;2023-02-19T13:48:03;101014.53;;;10.58;83.33
21504;BME280;10913;51.992;9.228;2023-02-19T13:50:37;101003.06;;;10.61;83.66
21504;BME280;10913;51.992;9.228;2023-02-19T14:14:27;101009.22;;;10.55;80.69
21504;BME280;10913;51.992;9.228;2023-02-19T14:17:03;101018.06;;;10.57;80.65
21504;BME280;10913;51.992;9.228;2023-02-19T14:19:50;101015.41;;;10.54;80.91
21504;BME280;10913;51.992;9.228;2023-02-19T14:30:52;101023.22;;;10.42;81.73
21504;BME280;10913;51.992;9.228;2023-02-19T14:33:23;101023.25;;;10.45;81.59
21504;BME280;10913;51.992;9.228;2023-02-19T14:36:01;101020.59;;;10.39;82.51
21504;BME280;10913;51.992;9.228;2023-02-19T14:38:32;101024.09;;;10.35;82.75
21504;BME280;10913;51.992;9.228;2023-02-19T14:40:59;101029.38;;;10.33;82.72
21504;BME280;10913;51.992;9.228;2023-02-19T14:43:26;101036.34;;;10.27;83.07
21504;BME280;10913;51.992;9.228;2023-02-19T14:45:54;101041.59;;;10.21;83.13
21504;BME280;10913;51.992;9.228;2023-02-19T14:48:24;101039.88;;;10.24;81.96
21504;BME280;10913;51.992;9.228;2023-02-19T14:50:55;101039.88;;;10.24;81.51
21504;BME280;10913;51.992;9.228;2023-02-19T14:53:23;101041.56;;;10.16;82.27
21504;BME280;10913;51.992;9.228;2023-02-19T14:55:50;101048.56;;;10.13;82.21
21504;BME280;10913;51.992;9.228;2023-02-19T14:58:21;101052.09;;;10.13;82.11
21504;BME280;10913;51.992;9.228;2023-02-19T15:00:48;101053.81;;;10.10;81.99
21504;BME280;10913;51.992;9.228;2023-02-19T15:03:37;101052.94;;;10.11;81.60
21504;BME280;10913;51.992;9.228;2023-02-19T15:06:06;101053.75;;;10.03;81.26